Time;durP1;ratioP1;P1;durP2;ratioP2;P2;SDS_P1;SDS_P2;PMS_P1;PMS_P2;Temp;Humidity;BMP_temperature;BMP_pressure;BME280_temperature;BME280_humidity;BME280_pressure;Samples;Min_cycle;Max_cycle;Signal;HPM_P1;HPM_P2
2023/09/02 00:00:45;;;;;;;;;;;;;;;;;;2215924;58;3565;-23
2023/09/02 00:03:15;;;;;;;;;;;;;;;;;;2214450;66;2198;-23
2023/09/02 00:05:45;;;;;;;;;;;;;;;;;;2215408;66;2012;-23
2023/09/02 00:08:15;;;;;;;;;;;;;;;;;;2214574;58;1829;-23
2023/09/02 00:10:46;;;;;;;;;;;;;;;;;;2209391;66;1964;-23
2023/09/02 00:13:16;;;;;;;;;;;;;;;;;;2214273;58;1868;-23
2023/09/02 00:15:46;;;;;;;;;;;;;;;;;;2215301;66;2505;-23
2023/09/02 00:18:16;;;;;;;;;;;;;;;;;;2214235;66;1851;-23
2023/09/02 00:20:46;;;;;;;;;;;;;;;;;;2215593;66;1780;-23
2023/09/02 00:23:17;;;;;;;;;;;;;;;;;;2213861;59;2243;-23
2023/09/02 00:25:47;;;;;;;;;;;;;;;;;;2215298;58;2451;-23
2023/09/02 00:28:17;;;;;;;;;;;;;;;;;;2211146;59;1901;-23
2023/09/02 00:30:47;;;;;;;;;;;;;;;;;;2215222;66;1958;-23
2023/09/02 00:33:17;;;;;;;;;;;;;;;;;;2215102;58;2493;-23
2023/09/02 00:35:48;;;;;;;;;;;;;;;;;;2215098;66;1947;-23
2023/09/02 00:38:18;;;;;;;;;;;;;;;;;;2214496;58;2050;-23
2023/09/02 00:40:56;;;;;;;;;;;;;;;;;;2215154;66;1721;-23
2023/09/02 00:43:27;;;;;;;;;;;;;;;;;;2215980;66;2240;-23
2023/09/02 00:45:58;;;;;;;;;;;;;;;;;;2218150;58;2318;-23
2023/09/02 00:48:28;;;;;;;;;;;;;;;;;;2216151;66;1995;-23
2023/09/02 00:50:58;;;;;;;;;;;;;;;;;;2214997;58;2951;-23
2023/09/02 00:53:29;;;;;;;;;;;;;;;;;;2215662;58;2483;-23
2023/09/02 00:56:00;;;;;;;;;;;;;;;;;;2215205;66;1935;-23
2023/09/02 00:58:30;;;;;;;;;;;;;;;;;;2215342;66;1781;-23
2023/09/02 01:01:03;;;;;;;;;;;;;;;;;;2215659;58;2069;-23
2023/09/02 01:03:35;;;;;;;;;;;;;;;;;;2215237;66;1859;-23
2023/09/02 01:06:05;;;;;;;;;;;;;;;;;;2214303;58;1906;-23
2023/09/02 01:08:36;;;;;;;;;;;;;;;;;;2214605;58;2153;-23
2023/09/02 01:11:10;;;;;;;;;;;;;;;;;;2214855;66;2984;-23
2023/09/02 01:13:40;;;;;;;;;;;;;;;;;;2215635;58;2605;-23
2023/09/02 01:16:10;;;;;;;;;;;;;;;;;;2211438;66;1998;-23
2023/09/02 01:18:41;;;;;;;;;;;;;;;;;;2216380;66;2164;-23
2023/09/02 01:21:11;;;;;;;;;;;;;;;;;;2216266;66;2737;-23
2023/09/02 01:24:07;;;;;;;;;;;;;;;;;;2211678;59;2499;-23
2023/09/02 01:26:56;;;;;;;;;;;;;;;;;;2214239;66;2505;-23
2023/09/02 01:29:28;;;;;;;;;;;;;;;;;;2215086;58;2103;-23
2023/09/02 01:32:00;;;;;;;;;;;;;;;;;;2214960;58;1986;-23
2023/09/02 01:34:31;;;;;;;;;;;;;;;;;;2215074;66;1946;-23
2023/09/02 01:37:03;;;;;;;;;;;;;;;;;;2214434;58;2105;-23
2023/09/02 01:39:34;;;;;;;;;;;;;;;;;;2214361;66;1671;-23
2023/09/02 01:42:06;;;;;;;;;;;;;;;;;;2214231;66;3198;-23
2023/09/02 01:44:37;;;;;;;;;;;;;;;;;;2211828;58;2399;-23
2023/09/02 01:47:08;;;;;;;;;;;;;;;;;;2214867;66;2213;-23
2023/09/02 01:49:38;;;;;;;;;;;;;;;;;;2214276;58;1765;-23
2023/09/02 01:52:08;;;;;;;;;;;;;;;;;;2215186;58;2745;-23
2023/09/02 01:54:39;;;;;;;;;;;;;;;;;;2214240;66;2012;-23
2023/09/02 01:57:09;;;;;;;;;;;;;;;;;;2213606;59;1775;-23
2023/09/02 01:59:39;;;;;;;;;;;;;;;;;;2214878;66;1980;-23
2023/09/02 02:02:09;;;;;;;;;;;;;;;;;;2214145;58;1368;-23
2023/09/02 02:04:42;;;;;;;;;;;;;;;;;;2211061;66;1828;-23
2023/09/02 02:07:13;;;;;;;;;;;;;;;;;;2214294;59;1761;-23
2023/09/02 02:09:48;;;;;;;;;;;;;;;;;;2214307;66;1853;-23
2023/09/02 02:12:19;;;;;;;;;;;;;;;;;;2214736;58;2012;-23
2023/09/02 02:14:50;;;;;;;;;;;;;;;;;;2214865;66;1974;-23
2023/09/02 02:17:20;;;;;;;;;;;;;;;;;;2213853;66;1872;-23
2023/09/02 02:19:53;;;;;;;;;;;;;;;;;;2214847;66;1705;-23
2023/09/02 02:22:23;;;;;;;;;;;;;;;;;;2211298;66;1845;-23
2023/09/02 02:24:53;;;;;;;;;;;;;;;;;;2213415;66;2557;-23
2023/09/02 02:27:24;;;;;;;;;;;;;;;;;;2212090;59;2554;-23
2023/09/02 02:29:55;;;;;;;;;;;;;;;;;;2214492;63;1768;-23
2023/09/02 02:32:28;;;;;;;;;;;;;;;;;;2214814;58;2338;-23
2023/09/02 02:34:58;;;;;;;;;;;;;;;;;;2213973;66;1978;-23
2023/09/02 02:37:28;;;;;;;;;;;;;;;;;;2214485;58;1889;-23
2023/09/02 02:39:58;;;;;;;;;;;;;;;;;;2210842;66;1762;-23
2023/09/02 02:42:28;;;;;;;;;;;;;;;;;;2210595;66;1770;-23
2023/09/02 02:44:59;;;;;;;;;;;;;;;;;;2214662;58;1395;-23
2023/09/02 02:47:29;;;;;;;;;;;;;;;;;;2214025;66;2060;-23
2023/09/02 02:49:59;;;;;;;;;;;;;;;;;;2211452;59;1951;-23
2023/09/02 02:52:30;;;;;;;;;;;;;;;;;;2215004;58;2460;-23
2023/09/02 02:55:00;;;;;;;;;;;;;;;;;;2215147;66;1989;-23
2023/09/02 02:57:30;;;;;;;;;;;;;;;;;;2214593;58;2019;-23
2023/09/02 03:00:01;;;;;;;;;;;;;;;;;;2214457;58;1839;-23
2023/09/02 03:02:31;;;;;;;;;;;;;;;;;;2214536;66;1773;-23
2023/09/02 03:05:02;;;;;;;;;;;;;;;;;;2211822;66;2150;-23
2023/09/02 03:07:35;;;;;;;;;;;;;;;;;;2214249;66;1808;-23
2023/09/02 03:10:05;;;;;;;;;;;;;;;;;;2214883;66;1435;-23
2023/09/02 03:12:36;;;;;;;;;;;;;;;;;;2214671;58;1407;-23
2023/09/02 03:15:06;;;;;;;;;;;;;;;;;;2216037;66;1939;-23
2023/09/02 03:17:36;;;;;;;;;;;;;;;;;;2217893;66;1460;-23
2023/09/02 03:20:09;;;;;;;;;;;;;;;;;;2217518;66;2211;-23
2023/09/02 03:22:41;;;;;;;;;;;;;;;;;;2215891;66;1963;-23
2023/09/02 03:25:12;;;;;;;;;;;;;;;;;;2214332;66;2239;-23
2023/09/02 03:27:42;;;;;;;;;;;;;;;;;;2211261;58;2525;-23
2023/09/02 03:30:12;;;;;;;;;;;;;;;;;;2211696;66;2500;-23
2023/09/02 03:32:42;;;;;;;;;;;;;;;;;;2214478;58;1974;-23
2023/09/02 03:35:13;;;;;;;;;;;;;;;;;;2213642;66;2004;-23
2023/09/02 03:37:43;;;;;;;;;;;;;;;;;;2215572;58;1915;-23
2023/09/02 03:40:13;;;;;;;;;;;;;;;;;;2215815;66;2476;-23
2023/09/02 03:42:44;;;;;;;;;;;;;;;;;;2215594;66;1841;-23
2023/09/02 03:45:14;;;;;;;;;;;;;;;;;;2215371;58;1872;-23
2023/09/02 03:47:44;;;;;;;;;;;;;;;;;;2215795;59;1903;-23
2023/09/02 03:50:22;;;;;;;;;;;;;;;;;;2215103;66;2516;-23
2023/09/02 03:52:52;;;;;;;;;;;;;;;;;;2215033;58;2440;-23
2023/09/02 03:55:22;;;;;;;;;;;;;;;;;;2215243;58;2191;-22
2023/09/02 03:57:52;;;;;;;;;;;;;;;;;;2212435;59;2355;-23
2023/09/02 04:00:24;;;;;;;;;;;;;;;;;;2215634;58;2187;-22
2023/09/02 04:02:54;;;;;;;;;;;;;;;;;;2216240;66;2133;-23
2023/09/02 04:05:24;;;;;;;;;;;;;;;;;;2217199;66;1530;-23
2023/09/02 04:07:55;;;;;;;;;;;;;;;;;;2216155;63;2054;-23
2023/09/02 04:10:25;;;;;;;;;;;;;;;;;;2215621;66;2005;-23
2023/09/02 04:12:55;;;;;;;;;;;;;;;;;;2215242;58;2077;-23
2023/09/02 04:15:25;;;;;;;;;;;;;;;;;;2214915;66;1986;-23
2023/09/02 04:17:55;;;;;;;;;;;;;;;;;;2214973;66;2342;-23
2023/09/02 04:20:26;;;;;;;;;;;;;;;;;;2215383;66;1505;-23
2023/09/02 04:22:57;;;;;;;;;;;;;;;;;;2215659;66;1748;-23
2023/09/02 04:25:27;;;;;;;;;;;;;;;;;;2215582;66;2217;-23
2023/09/02 04:27:57;;;;;;;;;;;;;;;;;;2213968;58;2337;-23
2023/09/02 04:30:27;;;;;;;;;;;;;;;;;;2215117;66;1723;-23
2023/09/02 04:32:58;;;;;;;;;;;;;;;;;;2214338;58;2502;-23
2023/09/02 04:35:28;;;;;;;;;;;;;;;;;;2215288;66;2383;-23
2023/09/02 04:37:58;;;;;;;;;;;;;;;;;;2214383;58;1824;-23
2023/09/02 04:40:29;;;;;;;;;;;;;;;;;;2215170;66;1805;-23
2023/09/02 04:42:59;;;;;;;;;;;;;;;;;;2214784;66;1203;-23
2023/09/02 04:45:33;;;;;;;;;;;;;;;;;;2214221;58;1366;-23
2023/09/02 04:48:03;;;;;;;;;;;;;;;;;;2214987;66;2013;-23
2023/09/02 04:50:34;;;;;;;;;;;;;;;;;;2214976;58;1360;-23
2023/09/02 04:53:05;;;;;;;;;;;;;;;;;;2215534;58;1879;-23
2023/09/02 04:55:41;;;;;;;;;;;;;;;;;;2214904;58;1941;-22
2023/09/02 04:58:11;;;;;;;;;;;;;;;;;;2214778;66;1092;-23
2023/09/02 05:00:42;;;;;;;;;;;;;;;;;;2215686;58;1120;-23
2023/09/02 05:03:12;;;;;;;;;;;;;;;;;;2215935;66;1596;-22
2023/09/02 05:05:43;;;;;;;;;;;;;;;;;;2215378;66;1661;-23
2023/09/02 05:08:13;;;;;;;;;;;;;;;;;;2214297;58;1675;-23
2023/09/02 05:10:44;;;;;;;;;;;;;;;;;;2215133;66;1662;-23
2023/09/02 05:13:14;;;;;;;;;;;;;;;;;;2215331;59;1732;-23
2023/09/02 05:15:44;;;;;;;;;;;;;;;;;;2214959;66;1992;-23
2023/09/02 05:18:14;;;;;;;;;;;;;;;;;;2215010;66;1816;-23
2023/09/02 05:20:44;;;;;;;;;;;;;;;;;;2212670;66;1251;-23
2023/09/02 05:23:15;;;;;;;;;;;;;;;;;;2214889;66;1917;-23
2023/09/02 05:25:45;;;;;;;;;;;;;;;;;;2214816;66;1537;-23
2023/09/02 05:28:15;;;;;;;;;;;;;;;;;;2213718;58;2129;-23
2023/09/02 05:30:45;;;;;;;;;;;;;;;;;;2214834;58;2122;-23
2023/09/02 05:33:16;;;;;;;;;;;;;;;;;;2214771;58;2215;-23
2023/09/02 05:35:46;;;;;;;;;;;;;;;;;;2211686;66;1989;-23
2023/09/02 05:38:16;;;;;;;;;;;;;;;;;;2214008;66;2173;-23
2023/09/02 05:40:47;;;;;;;;;;;;;;;;;;2214788;66;1754;-23
2023/09/02 05:43:17;;;;;;;;;;;;;;;;;;2214219;66;2818;-23
2023/09/02 05:45:50;;;;;;;;;;;;;;;;;;2211815;59;2621;-23
2023/09/02 05:48:20;;;;;;;;;;;;;;;;;;2214278;66;1767;-23
2023/09/02 05:50:54;;;;;;;;;;;;;;;;;;2211070;58;2503;-23
2023/09/02 05:53:25;;;;;;;;;;;;;;;;;;2215099;58;2490;-23
2023/09/02 05:55:55;;;;;;;;;;;;;;;;;;2214090;58;2749;-23
2023/09/02 05:58:26;;;;;;;;;;;;;;;;;;2214845;66;1375;-23
2023/09/02 06:01:02;;;;;;;;;;;;;;;;;;2215678;58;2495;-23
2023/09/02 06:03:32;;;;;;;;;;;;;;;;;;2215483;66;1779;-23
2023/09/02 06:06:09;;;;;;;;;;;;;;;;;;2214682;60;1974;-23
2023/09/02 06:08:40;;;;;;;;;;;;;;;;;;2215213;58;2577;-23
2023/09/02 06:11:10;;;;;;;;;;;;;;;;;;2214306;66;1837;-23
2023/09/02 06:13:40;;;;;;;;;;;;;;;;;;2215718;58;2715;-23
2023/09/02 06:16:10;;;;;;;;;;;;;;;;;;2213629;60;1990;-23
2023/09/02 06:18:41;;;;;;;;;;;;;;;;;;2214972;66;2476;-23
2023/09/02 06:21:12;;;;;;;;;;;;;;;;;;2214521;66;1752;-23
2023/09/02 06:23:43;;;;;;;;;;;;;;;;;;2214537;66;2288;-23
2023/09/02 06:26:13;;;;;;;;;;;;;;;;;;2214167;66;1899;-23
2023/09/02 06:28:45;;;;;;;;;;;;;;;;;;2213765;59;2435;-23
2023/09/02 06:31:15;;;;;;;;;;;;;;;;;;2214042;59;2398;-23
2023/09/02 06:33:46;;;;;;;;;;;;;;;;;;2212905;59;2256;-23
2023/09/02 06:36:16;;;;;;;;;;;;;;;;;;2214123;66;2005;-23
2023/09/02 06:38:47;;;;;;;;;;;;;;;;;;2211465;59;1810;-23
2023/09/02 06:41:17;;;;;;;;;;;;;;;;;;2214759;66;1761;-23
2023/09/02 06:43:49;;;;;;;;;;;;;;;;;;2213398;66;1814;-23
2023/09/02 06:46:19;;;;;;;;;;;;;;;;;;2213894;58;1804;-23
2023/09/02 06:48:50;;;;;;;;;;;;;;;;;;2214951;66;2587;-23
2023/09/02 06:51:20;;;;;;;;;;;;;;;;;;2213850;58;1856;-23
2023/09/02 06:53:51;;;;;;;;;;;;;;;;;;2214533;66;2559;-23
2023/09/02 06:56:21;;;;;;;;;;;;;;;;;;2213813;58;2441;-24
2023/09/02 06:58:51;;;;;;;;;;;;;;;;;;2211177;66;2672;-24
2023/09/02 07:01:22;;;;;;;;;;;;;;;;;;2213925;58;2035;-24
2023/09/02 07:03:55;;;;;;;;;;;;;;;;;;2213997;64;1978;-24
2023/09/02 07:06:25;;;;;;;;;;;;;;;;;;2214771;66;1871;-24
2023/09/02 07:08:59;;;;;;;;;;;;;;;;;;2213972;66;1732;-24
2023/09/02 07:11:29;;;;;;;;;;;;;;;;;;2215894;59;1952;-24
2023/09/02 07:13:59;;;;;;;;;;;;;;;;;;2216487;59;1960;-24
2023/09/02 07:16:29;;;;;;;;;;;;;;;;;;2214867;66;2002;-24
2023/09/02 07:19:03;;;;;;;;;;;;;;;;;;2211732;66;2057;-24
2023/09/02 07:21:33;;;;;;;;;;;;;;;;;;2215391;63;2045;-24
2023/09/02 07:24:03;;;;;;;;;;;;;;;;;;2212727;66;1778;-24
2023/09/02 07:26:33;;;;;;;;;;;;;;;;;;2215707;58;1770;-24
2023/09/02 07:29:04;;;;;;;;;;;;;;;;;;2213714;58;2153;-24
2023/09/02 07:31:34;;;;;;;;;;;;;;;;;;2214721;58;2548;-24
2023/09/02 07:34:04;;;;;;;;;;;;;;;;;;2214513;58;1761;-24
2023/09/02 07:36:34;;;;;;;;;;;;;;;;;;2214788;66;1964;-24
2023/09/02 07:39:05;;;;;;;;;;;;;;;;;;2214529;58;2485;-24
2023/09/02 07:41:35;;;;;;;;;;;;;;;;;;2211271;66;2188;-25
2023/09/02 07:44:05;;;;;;;;;;;;;;;;;;2214569;66;2951;-24
2023/09/02 07:46:35;;;;;;;;;;;;;;;;;;2215745;58;1753;-24
2023/09/02 07:49:06;;;;;;;;;;;;;;;;;;2214350;66;2394;-24
2023/09/02 07:51:36;;;;;;;;;;;;;;;;;;2215987;58;3555;-24
2023/09/02 07:54:06;;;;;;;;;;;;;;;;;;2211677;59;1987;-24
2023/09/02 07:56:36;;;;;;;;;;;;;;;;;;2212417;66;2194;-24
2023/09/02 07:59:06;;;;;;;;;;;;;;;;;;2215038;66;2284;-24
2023/09/02 08:01:37;;;;;;;;;;;;;;;;;;2215138;58;1868;-24
2023/09/02 08:04:07;;;;;;;;;;;;;;;;;;2214324;59;2310;-24
2023/09/02 08:06:37;;;;;;;;;;;;;;;;;;2215105;66;1899;-24
2023/09/02 08:09:07;;;;;;;;;;;;;;;;;;2214221;66;1978;-25
2023/09/02 08:11:38;;;;;;;;;;;;;;;;;;2209209;58;2129;-24
2023/09/02 08:14:08;;;;;;;;;;;;;;;;;;2214898;66;1628;-24
2023/09/02 08:16:38;;;;;;;;;;;;;;;;;;2211382;66;2008;-24
2023/09/02 08:19:08;;;;;;;;;;;;;;;;;;2214761;66;1720;-24
2023/09/02 08:21:38;;;;;;;;;;;;;;;;;;2214409;66;1327;-22
2023/09/02 08:24:09;;;;;;;;;;;;;;;;;;2214373;66;1950;-22
2023/09/02 08:26:40;;;;;;;;;;;;;;;;;;2212847;59;1586;-22
2023/09/02 08:29:11;;;;;;;;;;;;;;;;;;2214469;58;1721;-22
2023/09/02 08:31:41;;;;;;;;;;;;;;;;;;2213793;58;2918;-22
2023/09/02 08:34:14;;;;;;;;;;;;;;;;;;2213858;58;2499;-22
2023/09/02 08:36:44;;;;;;;;;;;;;;;;;;2214713;66;1933;-22
2023/09/02 08:39:14;;;;;;;;;;;;;;;;;;2214183;58;1948;-22
2023/09/02 08:41:45;;;;;;;;;;;;;;;;;;2215511;66;1731;-22
2023/09/02 08:44:15;;;;;;;;;;;;;;;;;;2214599;66;2056;-22
2023/09/02 08:46:49;;;;;;;;;;;;;;;;;;2215693;58;1794;-22
2023/09/02 08:49:20;;;;;;;;;;;;;;;;;;2214847;58;2830;-23
2023/09/02 08:51:52;;;;;;;;;;;;;;;;;;2212375;59;2554;-23
2023/09/02 08:54:23;;;;;;;;;;;;;;;;;;2214469;58;1757;-22
2023/09/02 08:56:54;;;;;;;;;;;;;;;;;;2215021;58;1998;-22
2023/09/02 08:59:25;;;;;;;;;;;;;;;;;;2216068;66;2358;-23
2023/09/02 09:01:56;;;;;;;;;;;;;;;;;;2215932;58;2303;-22
2023/09/02 09:04:29;;;;;;;;;;;;;;;;;;2214398;66;1955;-22
2023/09/02 09:07:02;;;;;;;;;;;;;;;;;;2210662;59;2361;-22
2023/09/02 09:09:34;;;;;;;;;;;;;;;;;;2214882;66;2700;-22
2023/09/02 09:12:06;;;;;;;;;;;;;;;;;;2214251;59;2182;-23
2023/09/02 09:14:37;;;;;;;;;;;;;;;;;;2215842;66;1845;-22
2023/09/02 09:17:07;;;;;;;;;;;;;;;;;;2214582;66;1953;-22
2023/09/02 09:19:37;;;;;;;;;;;;;;;;;;2215403;66;1969;-22
2023/09/02 09:22:08;;;;;;;;;;;;;;;;;;2212025;66;1708;-22
2023/09/02 09:24:38;;;;;;;;;;;;;;;;;;2214622;66;2278;-23
2023/09/02 09:27:11;;;;;;;;;;;;;;;;;;2214253;58;2683;-22
2023/09/02 09:29:42;;;;;;;;;;;;;;;;;;2215122;66;1963;-22
2023/09/02 09:32:14;;;;;;;;;;;;;;;;;;2215019;59;2344;-22
2023/09/02 09:34:44;;;;;;;;;;;;;;;;;;2216973;59;2473;-22
2023/09/02 09:37:14;;;;;;;;;;;;;;;;;;2215460;66;1772;-22
2023/09/02 09:39:46;;;;;;;;;;;;;;;;;;2215448;66;1874;-22
2023/09/02 09:42:17;;;;;;;;;;;;;;;;;;2214465;66;2072;-23
2023/09/02 09:44:55;;;;;;;;;;;;;;;;;;2215251;58;2081;-22
2023/09/02 09:47:26;;;;;;;;;;;;;;;;;;2214866;59;2918;-22
2023/09/02 09:50:12;;;;;;;;;;;;;;;;;;2215354;66;1798;-22
2023/09/02 09:52:59;;;;;;;;;;;;;;;;;;2212512;59;2484;-23
2023/09/02 09:55:30;;;;;;;;;;;;;;;;;;2215482;66;2545;-23
2023/09/02 09:58:00;;;;;;;;;;;;;;;;;;2211688;66;2707;-22
2023/09/02 10:00:31;;;;;;;;;;;;;;;;;;2214628;58;1657;-22
2023/09/02 10:03:03;;;;;;;;;;;;;;;;;;2212292;66;2608;-22
2023/09/02 10:05:33;;;;;;;;;;;;;;;;;;2215274;66;2618;-22
2023/09/02 10:08:04;;;;;;;;;;;;;;;;;;2214635;58;2319;-22
2023/09/02 10:10:36;;;;;;;;;;;;;;;;;;2214404;66;1836;-23
2023/09/02 10:13:06;;;;;;;;;;;;;;;;;;2214757;59;1786;-23
2023/09/02 10:15:36;;;;;;;;;;;;;;;;;;2215479;66;2485;-23
2023/09/02 10:18:06;;;;;;;;;;;;;;;;;;2214845;66;2402;-23
2023/09/02 10:20:38;;;;;;;;;;;;;;;;;;2214598;66;1899;-23
2023/09/02 10:23:09;;;;;;;;;;;;;;;;;;2215011;66;1557;-22
2023/09/02 10:25:58;;;;;;;;;;;;;;;;;;2215186;66;1941;-23
2023/09/02 10:28:32;;;;;;;;;;;;;;;;;;2214258;58;1350;-23
2023/09/02 10:31:06;;;;;;;;;;;;;;;;;;2214641;66;1571;-23
2023/09/02 10:33:38;;;;;;;;;;;;;;;;;;2213848;58;2499;-22
2023/09/02 10:36:09;;;;;;;;;;;;;;;;;;2210331;66;2621;-23
2023/09/02 10:38:44;;;;;;;;;;;;;;;;;;2215714;66;1776;-23
2023/09/02 10:41:15;;;;;;;;;;;;;;;;;;2214119;66;1829;-23
2023/09/02 10:43:46;;;;;;;;;;;;;;;;;;2211192;66;1860;-23
2023/09/02 10:46:16;;;;;;;;;;;;;;;;;;2214434;58;1885;-23
2023/09/02 10:48:48;;;;;;;;;;;;;;;;;;2211914;59;2013;-23
2023/09/02 10:51:18;;;;;;;;;;;;;;;;;;2214679;58;2493;-23
2023/09/02 10:53:52;;;;;;;;;;;;;;;;;;2215156;58;1699;-22
2023/09/02 10:56:30;;;;;;;;;;;;;;;;;;2214419;58;2604;-23
2023/09/02 10:59:07;;;;;;;;;;;;;;;;;;2214808;66;1910;-23
2023/09/02 11:01:44;;;;;;;;;;;;;;;;;;2215171;58;2457;-22
2023/09/02 11:04:34;;;;;;;;;;;;;;;;;;2214749;59;1794;-23
2023/09/02 11:07:19;;;;;;;;;;;;;;;;;;2211221;59;2036;-23
2023/09/02 11:09:54;;;;;;;;;;;;;;;;;;2215724;66;1890;-23
2023/09/02 11:12:24;;;;;;;;;;;;;;;;;;2215588;58;2305;-23
2023/09/02 11:15:07;;;;;;;;;;;;;;;;;;2218794;66;1922;-22
2023/09/02 11:17:43;;;;;;;;;;;;;;;;;;2217762;66;1300;-22
2023/09/02 11:20:15;;;;;;;;;;;;;;;;;;2214671;66;1197;-23
2023/09/02 11:22:55;;;;;;;;;;;;;;;;;;2216861;66;1671;-22
2023/09/02 11:25:29;;;;;;;;;;;;;;;;;;2214600;66;1448;-23
2023/09/02 11:28:06;;;;;;;;;;;;;;;;;;2215483;58;1412;-23
2023/09/02 11:30:56;;;;;;;;;;;;;;;;;;2215624;66;1339;-23
2023/09/02 11:33:27;;;;;;;;;;;;;;;;;;2214691;58;2582;-23
2023/09/02 11:36:11;;;;;;;;;;;;;;;;;;2214905;59;2220;-23
2023/09/02 11:38:42;;;;;;;;;;;;;;;;;;2215684;58;1797;-22
2023/09/02 11:41:20;;;;;;;;;;;;;;;;;;2211710;66;2450;-22
2023/09/02 11:43:50;;;;;;;;;;;;;;;;;;2215845;66;1865;-23
2023/09/02 11:46:21;;;;;;;;;;;;;;;;;;2215370;58;2237;-23
2023/09/02 11:48:52;;;;;;;;;;;;;;;;;;2216089;66;2535;-22
2023/09/02 11:51:22;;;;;;;;;;;;;;;;;;2215232;58;2031;-23
2023/09/02 11:53:55;;;;;;;;;;;;;;;;;;2216360;58;2388;-23
2023/09/02 11:56:25;;;;;;;;;;;;;;;;;;2215510;58;2822;-22
2023/09/02 11:58:55;;;;;;;;;;;;;;;;;;2212197;66;1824;-23
2023/09/02 12:01:25;;;;;;;;;;;;;;;;;;2215087;58;1958;-22
2023/09/02 12:03:56;;;;;;;;;;;;;;;;;;2214673;66;2024;-23
2023/09/02 12:06:28;;;;;;;;;;;;;;;;;;2214914;66;2799;-23
2023/09/02 12:08:59;;;;;;;;;;;;;;;;;;2211783;59;1738;-23
2023/09/02 12:11:29;;;;;;;;;;;;;;;;;;2211925;59;2337;-23
2023/09/02 12:14:00;;;;;;;;;;;;;;;;;;2215641;66;1791;-23
2023/09/02 12:16:30;;;;;;;;;;;;;;;;;;2214541;66;1955;-23
2023/09/02 12:19:00;;;;;;;;;;;;;;;;;;2215049;66;1782;-23
2023/09/02 12:21:34;;;;;;;;;;;;;;;;;;2215225;66;1750;-23
2023/09/02 12:24:04;;;;;;;;;;;;;;;;;;2215274;66;2116;-23
2023/09/02 12:26:48;;;;;;;;;;;;;;;;;;2221758;53;2459;-19
2023/09/02 12:29:18;;;;;;;;;;;;;;;;;;2215300;58;2031;-19
2023/09/02 12:31:54;;;;;;;;;;;;;;;;;;2221045;58;1917;-19
2023/09/02 12:34:24;;;;;;;;;;;;;;;;;;2219763;58;2107;-19
2023/09/02 12:36:55;;;;;;;;;;;;;;;;;;2215920;59;2509;-19
2023/09/02 12:39:26;;;;;;;;;;;;;;;;;;2216887;66;2246;-19
2023/09/02 12:41:56;;;;;;;;;;;;;;;;;;2213402;66;1708;-19
2023/09/02 12:44:27;;;;;;;;;;;;;;;;;;2216898;58;1346;-19
2023/09/02 12:46:57;;;;;;;;;;;;;;;;;;2213076;66;2254;-21
2023/09/02 12:49:27;;;;;;;;;;;;;;;;;;2216788;59;1399;-20
2023/09/02 12:51:58;;;;;;;;;;;;;;;;;;2213879;59;1638;-20
2023/09/02 12:54:29;;;;;;;;;;;;;;;;;;2217287;58;1690;-20
2023/09/02 12:57:02;;;;;;;;;;;;;;;;;;2216267;58;1933;-18
2023/09/02 12:59:32;;;;;;;;;;;;;;;;;;2216495;66;2001;-19
2023/09/02 13:02:05;;;;;;;;;;;;;;;;;;2217186;58;1674;-18
2023/09/02 13:04:36;;;;;;;;;;;;;;;;;;2216874;66;1451;-18
2023/09/02 13:07:06;;;;;;;;;;;;;;;;;;2217370;66;1533;-18
2023/09/02 13:09:39;;;;;;;;;;;;;;;;;;2216717;66;1358;-19
2023/09/02 13:12:10;;;;;;;;;;;;;;;;;;2216079;58;1672;-19
2023/09/02 13:14:41;;;;;;;;;;;;;;;;;;2216922;66;1575;-18
2023/09/02 13:17:12;;;;;;;;;;;;;;;;;;2214141;59;1993;-18
2023/09/02 13:19:42;;;;;;;;;;;;;;;;;;2214875;66;1137;-18
2023/09/02 13:22:13;;;;;;;;;;;;;;;;;;2217445;66;1582;-18
2023/09/02 13:24:46;;;;;;;;;;;;;;;;;;2214624;59;1821;-19
2023/09/02 13:27:17;;;;;;;;;;;;;;;;;;2216776;58;1229;-18
2023/09/02 13:29:48;;;;;;;;;;;;;;;;;;2217857;58;2008;-18
2023/09/02 13:32:23;;;;;;;;;;;;;;;;;;2214425;59;1911;-19
2023/09/02 13:35:02;;;;;;;;;;;;;;;;;;2217023;66;2358;-18
2023/09/02 13:37:33;;;;;;;;;;;;;;;;;;2212960;66;2801;-18
2023/09/02 13:40:03;;;;;;;;;;;;;;;;;;2217355;66;1447;-18
2023/09/02 13:42:34;;;;;;;;;;;;;;;;;;2213112;59;2356;-18
2023/09/02 13:45:13;;;;;;;;;;;;;;;;;;2217476;59;1801;-18
2023/09/02 13:47:49;;;;;;;;;;;;;;;;;;2216691;66;2870;-18
2023/09/02 13:50:20;;;;;;;;;;;;;;;;;;2216595;58;1990;-18
2023/09/02 13:52:51;;;;;;;;;;;;;;;;;;2217123;58;2688;-18
2023/09/02 13:55:22;;;;;;;;;;;;;;;;;;2217452;59;1915;-18
2023/09/02 13:57:52;;;;;;;;;;;;;;;;;;2218226;66;2527;-18
2023/09/02 14:00:26;;;;;;;;;;;;;;;;;;2213885;59;1684;-18
2023/09/02 14:03:00;;;;;;;;;;;;;;;;;;2216896;66;2264;-18
2023/09/02 14:05:30;;;;;;;;;;;;;;;;;;2215351;66;2158;-18
2023/09/02 14:08:01;;;;;;;;;;;;;;;;;;2214194;59;1993;-18
2023/09/02 14:10:31;;;;;;;;;;;;;;;;;;2215878;66;1867;-18
2023/09/02 14:13:08;;;;;;;;;;;;;;;;;;2216828;58;1515;-20
2023/09/02 14:15:38;;;;;;;;;;;;;;;;;;2216169;66;2473;-20
2023/09/02 14:18:09;;;;;;;;;;;;;;;;;;2216710;66;2025;-20
2023/09/02 14:20:40;;;;;;;;;;;;;;;;;;2213895;59;2368;-20
2023/09/02 14:23:10;;;;;;;;;;;;;;;;;;2216632;62;1894;-20
2023/09/02 14:25:41;;;;;;;;;;;;;;;;;;2216647;58;2074;-20
2023/09/02 14:28:14;;;;;;;;;;;;;;;;;;2216230;58;1459;-20
2023/09/02 14:30:44;;;;;;;;;;;;;;;;;;2217109;58;1673;-20
2023/09/02 14:33:14;;;;;;;;;;;;;;;;;;2216895;66;1351;-20
2023/09/02 14:35:44;;;;;;;;;;;;;;;;;;2215440;66;2648;-20
2023/09/02 14:38:15;;;;;;;;;;;;;;;;;;2215518;59;2859;-20
2023/09/02 14:40:45;;;;;;;;;;;;;;;;;;2216615;66;1853;-20
2023/09/02 14:43:15;;;;;;;;;;;;;;;;;;2216001;59;1633;-20
2023/09/02 14:45:46;;;;;;;;;;;;;;;;;;2215928;58;1794;-20
2023/09/02 14:48:16;;;;;;;;;;;;;;;;;;2216144;66;1797;-20
2023/09/02 14:50:46;;;;;;;;;;;;;;;;;;2216062;59;1497;-20
2023/09/02 14:53:17;;;;;;;;;;;;;;;;;;2213794;59;1780;-20
2023/09/02 14:55:48;;;;;;;;;;;;;;;;;;2212767;58;2028;-20
2023/09/02 14:58:18;;;;;;;;;;;;;;;;;;2215894;66;1979;-21
2023/09/02 15:00:52;;;;;;;;;;;;;;;;;;2216456;58;1801;-21
2023/09/02 15:03:29;;;;;;;;;;;;;;;;;;2213187;66;1528;-21
2023/09/02 15:05:59;;;;;;;;;;;;;;;;;;2216024;59;1675;-20
2023/09/02 15:08:31;;;;;;;;;;;;;;;;;;2215679;66;1687;-21
2023/09/02 15:11:01;;;;;;;;;;;;;;;;;;2212470;66;1788;-21
2023/09/02 15:13:35;;;;;;;;;;;;;;;;;;2213338;59;1774;-20
2023/09/02 15:16:07;;;;;;;;;;;;;;;;;;2211669;66;1976;-21
2023/09/02 15:18:37;;;;;;;;;;;;;;;;;;2216013;66;1889;-21
2023/09/02 15:21:15;;;;;;;;;;;;;;;;;;2212534;66;1668;-20
2023/09/02 15:23:48;;;;;;;;;;;;;;;;;;2215876;66;1698;-21
2023/09/02 15:26:19;;;;;;;;;;;;;;;;;;2215121;66;1346;-21
2023/09/02 15:28:49;;;;;;;;;;;;;;;;;;2215357;59;1402;-21
2023/09/02 15:31:20;;;;;;;;;;;;;;;;;;2215145;58;1326;-21
2023/09/02 15:33:50;;;;;;;;;;;;;;;;;;2212997;59;1155;-21
2023/09/02 15:36:21;;;;;;;;;;;;;;;;;;2216253;66;2136;-21
2023/09/02 15:38:56;;;;;;;;;;;;;;;;;;2214873;59;2689;-21
2023/09/02 15:41:29;;;;;;;;;;;;;;;;;;2216122;66;1758;-21
2023/09/02 15:44:00;;;;;;;;;;;;;;;;;;2216031;59;1542;-21
2023/09/02 15:46:30;;;;;;;;;;;;;;;;;;2217162;58;2189;-21
2023/09/02 15:49:00;;;;;;;;;;;;;;;;;;2215685;66;2542;-21
2023/09/02 15:51:31;;;;;;;;;;;;;;;;;;2216117;58;1829;-21
2023/09/02 15:54:01;;;;;;;;;;;;;;;;;;2216267;58;2407;-21
2023/09/02 15:56:31;;;;;;;;;;;;;;;;;;2216285;58;2154;-21
2023/09/02 15:59:03;;;;;;;;;;;;;;;;;;2210818;59;1809;-21
2023/09/02 16:01:33;;;;;;;;;;;;;;;;;;2216607;58;2319;-21
2023/09/02 16:04:04;;;;;;;;;;;;;;;;;;2213876;66;1842;-21
2023/09/02 16:06:34;;;;;;;;;;;;;;;;;;2216134;66;2098;-21
2023/09/02 16:09:04;;;;;;;;;;;;;;;;;;2213390;66;1850;-21
2023/09/02 16:11:34;;;;;;;;;;;;;;;;;;2216428;58;2142;-21
2023/09/02 16:14:04;;;;;;;;;;;;;;;;;;2216621;66;1735;-21
2023/09/02 16:16:35;;;;;;;;;;;;;;;;;;2217167;66;1992;-21
2023/09/02 16:19:05;;;;;;;;;;;;;;;;;;2213547;66;1745;-20
2023/09/02 16:21:35;;;;;;;;;;;;;;;;;;2217344;66;1802;-20
2023/09/02 16:24:06;;;;;;;;;;;;;;;;;;2211435;66;1886;-20
2023/09/02 16:26:36;;;;;;;;;;;;;;;;;;2214575;59;1714;-20
2023/09/02 16:29:07;;;;;;;;;;;;;;;;;;2217855;58;1560;-20
2023/09/02 16:31:37;;;;;;;;;;;;;;;;;;2214360;59;1417;-20
2023/09/02 16:34:07;;;;;;;;;;;;;;;;;;2217220;58;1769;-20
2023/09/02 16:36:37;;;;;;;;;;;;;;;;;;2216904;66;1943;-20
2023/09/02 16:39:10;;;;;;;;;;;;;;;;;;2216274;58;2732;-20
2023/09/02 16:41:42;;;;;;;;;;;;;;;;;;2217401;66;2236;-20
2023/09/02 16:44:12;;;;;;;;;;;;;;;;;;2217025;66;1388;-20
2023/09/02 16:46:45;;;;;;;;;;;;;;;;;;2217452;58;1582;-20
2023/09/02 16:49:17;;;;;;;;;;;;;;;;;;2219061;58;2266;-20
2023/09/02 16:51:48;;;;;;;;;;;;;;;;;;2218066;58;1398;-18
2023/09/02 16:54:18;;;;;;;;;;;;;;;;;;2217950;58;1304;-18
2023/09/02 16:56:48;;;;;;;;;;;;;;;;;;2214373;66;1929;-18
2023/09/02 16:59:18;;;;;;;;;;;;;;;;;;2216848;66;1644;-18
2023/09/02 17:01:48;;;;;;;;;;;;;;;;;;2218594;58;1147;-18
2023/09/02 17:04:19;;;;;;;;;;;;;;;;;;2214788;66;2187;-18
2023/09/02 17:06:50;;;;;;;;;;;;;;;;;;2217371;66;1674;-18
2023/09/02 17:09:20;;;;;;;;;;;;;;;;;;2213663;66;1735;-18
2023/09/02 17:11:51;;;;;;;;;;;;;;;;;;2214861;66;1815;-18
2023/09/02 17:14:21;;;;;;;;;;;;;;;;;;2217108;66;1849;-18
2023/09/02 17:16:52;;;;;;;;;;;;;;;;;;2216661;66;1940;-18
2023/09/02 17:19:23;;;;;;;;;;;;;;;;;;2216841;66;2323;-18
2023/09/02 17:21:54;;;;;;;;;;;;;;;;;;2217308;66;1609;-18
2023/09/02 17:24:25;;;;;;;;;;;;;;;;;;2217818;66;1460;-18
2023/09/02 17:26:55;;;;;;;;;;;;;;;;;;2217540;58;1584;-18
2023/09/02 17:29:26;;;;;;;;;;;;;;;;;;2217372;58;1857;-18
2023/09/02 17:31:58;;;;;;;;;;;;;;;;;;2217397;58;1996;-18